sensor_id;sensor_type;location;lat;lon;timestamp;temperature;humidity
65824;SHT31;52585;47.566;19.056;2022-07-23T00:00:17;27.39;48.19
65824;SHT31;52585;47.566;19.056;2022-07-23T00:02:44;27.36;48.18
65824;SHT31;52585;47.566;19.056;2022-07-23T00:05:10;27.32;48.17
65824;SHT31;52585;47.566;19.056;2022-07-23T00:07:36;27.29;48.26
65824;SHT31;52585;47.566;19.056;2022-07-23T00:10:03;27.25;48.29
65824;SHT31;52585;47.566;19.056;2022-07-23T00:12:30;27.22;48.26
65824;SHT31;52585;47.566;19.056;2022-07-23T00:14:55;27.19;48.25
65824;SHT31;52585;47.566;19.056;2022-07-23T00:17:21;27.17;48.23
65824;SHT31;52585;47.566;19.056;2022-07-23T00:19:46;27.13;48.30
65824;SHT31;52585;47.566;19.056;2022-07-23T00:22:12;27.10;48.40
65824;SHT31;52585;47.566;19.056;2022-07-23T00:24:38;27.08;48.42
65824;SHT31;52585;47.566;19.056;2022-07-23T00:27:03;27.05;48.67
65824;SHT31;52585;47.566;19.056;2022-07-23T00:29:29;27.03;48.86
65824;SHT31;52585;47.566;19.056;2022-07-23T00:31:54;27.01;48.94
65824;SHT31;52585;47.566;19.056;2022-07-23T00:34:20;26.97;49.01
65824;SHT31;52585;47.566;19.056;2022-07-23T00:36:45;26.95;49.21
65824;SHT31;52585;47.566;19.056;2022-07-23T00:39:11;26.93;49.22
65824;SHT31;52585;47.566;19.056;2022-07-23T00:41:37;26.90;49.31
65824;SHT31;52585;47.566;19.056;2022-07-23T00:44:22;26.89;49.37
65824;SHT31;52585;47.566;19.056;2022-07-23T00:46:55;26.84;49.40
65824;SHT31;52585;47.566;19.056;2022-07-23T00:49:24;26.82;49.41
65824;SHT31;52585;47.566;19.056;2022-07-23T00:51:53;26.79;49.56
65824;SHT31;52585;47.566;19.056;2022-07-23T00:54:22;26.76;49.64
65824;SHT31;52585;47.566;19.056;2022-07-23T00:56:50;26.74;49.75
65824;SHT31;52585;47.566;19.056;2022-07-23T00:59:16;26.71;49.81
65824;SHT31;52585;47.566;19.056;2022-07-23T01:01:41;26.70;49.98
65824;SHT31;52585;47.566;19.056;2022-07-23T01:04:09;26.67;50.09
65824;SHT31;52585;47.566;19.056;2022-07-23T01:06:36;26.65;50.15
65824;SHT31;52585;47.566;19.056;2022-07-23T01:09:04;26.62;50.27
65824;SHT31;52585;47.566;19.056;2022-07-23T01:11:33;26.59;50.31
65824;SHT31;52585;47.566;19.056;2022-07-23T01:14:07;26.57;50.55
65824;SHT31;52585;47.566;19.056;2022-07-23T01:16:34;26.54;50.79
65824;SHT31;52585;47.566;19.056;2022-07-23T01:18:59;26.52;50.91
65824;SHT31;52585;47.566;19.056;2022-07-23T01:21:25;26.50;51.00
65824;SHT31;52585;47.566;19.056;2022-07-23T01:23:50;26.48;51.03
65824;SHT31;52585;47.566;19.056;2022-07-23T01:26:16;26.45;51.11
65824;SHT31;52585;47.566;19.056;2022-07-23T01:28:42;26.42;50.89
65824;SHT31;52585;47.566;19.056;2022-07-23T01:31:08;26.41;50.58
65824;SHT31;52585;47.566;19.056;2022-07-23T01:33:34;26.40;50.64
65824;SHT31;52585;47.566;19.056;2022-07-23T01:35:59;26.38;50.44
65824;SHT31;52585;47.566;19.056;2022-07-23T01:38:25;26.34;50.50
65824;SHT31;52585;47.566;19.056;2022-07-23T01:40:51;26.33;50.43
65824;SHT31;52585;47.566;19.056;2022-07-23T01:43:16;26.32;50.38
65824;SHT31;52585;47.566;19.056;2022-07-23T01:45:42;26.28;50.46
65824;SHT31;52585;47.566;19.056;2022-07-23T01:48:09;26.26;50.48
65824;SHT31;52585;47.566;19.056;2022-07-23T01:50:35;26.24;50.52
65824;SHT31;52585;47.566;19.056;2022-07-23T01:53:00;26.22;50.56
65824;SHT31;52585;47.566;19.056;2022-07-23T01:55:26;26.20;50.56
65824;SHT31;52585;47.566;19.056;2022-07-23T01:57:52;26.18;50.48
65824;SHT31;52585;47.566;19.056;2022-07-23T02:00:17;26.16;50.50
65824;SHT31;52585;47.566;19.056;2022-07-23T02:02:43;26.13;50.57
65824;SHT31;52585;47.566;19.056;2022-07-23T02:05:08;26.12;50.47
65824;SHT31;52585;47.566;19.056;2022-07-23T02:07:34;26.10;50.47
65824;SHT31;52585;47.566;19.056;2022-07-23T02:10:00;26.08;50.49
65824;SHT31;52585;47.566;19.056;2022-07-23T02:12:25;26.06;50.57
65824;SHT31;52585;47.566;19.056;2022-07-23T02:14:51;26.04;50.59
65824;SHT31;52585;47.566;19.056;2022-07-23T02:17:17;26.00;50.56
65824;SHT31;52585;47.566;19.056;2022-07-23T02:19:42;25.97;50.61
65824;SHT31;52585;47.566;19.056;2022-07-23T02:22:08;25.94;50.73
65824;SHT31;52585;47.566;19.056;2022-07-23T02:24:33;25.92;50.77
65824;SHT31;52585;47.566;19.056;2022-07-23T02:26:59;25.89;50.81
65824;SHT31;52585;47.566;19.056;2022-07-23T02:29:25;25.87;50.83
65824;SHT31;52585;47.566;19.056;2022-07-23T02:31:50;25.84;50.93
65824;SHT31;52585;47.566;19.056;2022-07-23T02:34:16;25.83;50.97
65824;SHT31;52585;47.566;19.056;2022-07-23T02:36:41;25.79;50.98
65824;SHT31;52585;47.566;19.056;2022-07-23T02:39:07;25.77;51.07
65824;SHT31;52585;47.566;19.056;2022-07-23T02:41:32;25.74;51.08
65824;SHT31;52585;47.566;19.056;2022-07-23T02:43:58;25.72;51.09
65824;SHT31;52585;47.566;19.056;2022-07-23T02:46:24;25.69;51.01
65824;SHT31;52585;47.566;19.056;2022-07-23T02:48:49;25.66;51.08
65824;SHT31;52585;47.566;19.056;2022-07-23T02:51:15;25.64;51.14
65824;SHT31;52585;47.566;19.056;2022-07-23T02:53:40;25.62;51.08
65824;SHT31;52585;47.566;19.056;2022-07-23T02:56:06;25.60;51.17
65824;SHT31;52585;47.566;19.056;2022-07-23T02:58:32;25.57;51.20
65824;SHT31;52585;47.566;19.056;2022-07-23T03:00:57;25.55;51.27
65824;SHT31;52585;47.566;19.056;2022-07-23T03:03:23;25.52;51.37
65824;SHT31;52585;47.566;19.056;2022-07-23T03:05:49;25.50;51.48
65824;SHT31;52585;47.566;19.056;2022-07-23T03:08:14;25.48;51.59
65824;SHT31;52585;47.566;19.056;2022-07-23T03:10:40;25.47;51.71
65824;SHT31;52585;47.566;19.056;2022-07-23T03:13:07;25.45;51.80
65824;SHT31;52585;47.566;19.056;2022-07-23T03:15:32;25.44;51.89
65824;SHT31;52585;47.566;19.056;2022-07-23T03:17:58;25.43;51.97
65824;SHT31;52585;47.566;19.056;2022-07-23T03:20:23;25.41;51.94
65824;SHT31;52585;47.566;19.056;2022-07-23T03:22:49;25.39;51.96
65824;SHT31;52585;47.566;19.056;2022-07-23T03:25:14;25.38;52.03
65824;SHT31;52585;47.566;19.056;2022-07-23T03:27:40;25.36;51.97
65824;SHT31;52585;47.566;19.056;2022-07-23T03:30:06;25.35;52.16
65824;SHT31;52585;47.566;19.056;2022-07-23T03:32:33;25.35;52.28
65824;SHT31;52585;47.566;19.056;2022-07-23T03:34:58;25.33;52.28
65824;SHT31;52585;47.566;19.056;2022-07-23T03:37:24;25.32;52.35
65824;SHT31;52585;47.566;19.056;2022-07-23T03:39:51;25.31;52.44
65824;SHT31;52585;47.566;19.056;2022-07-23T03:42:16;25.29;52.38
65824;SHT31;52585;47.566;19.056;2022-07-23T03:44:42;25.28;52.56
65824;SHT31;52585;47.566;19.056;2022-07-23T03:47:07;25.27;52.67
65824;SHT31;52585;47.566;19.056;2022-07-23T03:49:33;25.26;52.78
65824;SHT31;52585;47.566;19.056;2022-07-23T03:51:59;25.26;52.81
65824;SHT31;52585;47.566;19.056;2022-07-23T03:54:25;25.24;52.84
65824;SHT31;52585;47.566;19.056;2022-07-23T03:56:51;25.24;52.95
65824;SHT31;52585;47.566;19.056;2022-07-23T03:59:16;25.24;53.13
65824;SHT31;52585;47.566;19.056;2022-07-23T04:01:42;25.24;53.38
65824;SHT31;52585;47.566;19.056;2022-07-23T04:04:07;25.24;53.48
65824;SHT31;52585;47.566;19.056;2022-07-23T04:06:33;25.26;53.67
65824;SHT31;52585;47.566;19.056;2022-07-23T04:09:00;25.26;53.66
65824;SHT31;52585;47.566;19.056;2022-07-23T04:11:26;25.27;53.80
65824;SHT31;52585;47.566;19.056;2022-07-23T04:13:52;25.28;53.83
65824;SHT31;52585;47.566;19.056;2022-07-23T04:16:18;25.29;53.85
65824;SHT31;52585;47.566;19.056;2022-07-23T04:18:43;25.31;53.80
65824;SHT31;52585;47.566;19.056;2022-07-23T04:21:09;25.32;53.54
65824;SHT31;52585;47.566;19.056;2022-07-23T04:23:34;25.33;53.55
65824;SHT31;52585;47.566;19.056;2022-07-23T04:26:00;25.35;53.42
65824;SHT31;52585;47.566;19.056;2022-07-23T04:28:26;25.35;53.34
65824;SHT31;52585;47.566;19.056;2022-07-23T04:30:58;25.36;53.39
65824;SHT31;52585;47.566;19.056;2022-07-23T04:33:26;25.38;53.53
65824;SHT31;52585;47.566;19.056;2022-07-23T04:35:52;25.39;53.67
65824;SHT31;52585;47.566;19.056;2022-07-23T04:38:18;25.41;53.82
65824;SHT31;52585;47.566;19.056;2022-07-23T04:40:43;25.42;53.92
65824;SHT31;52585;47.566;19.056;2022-07-23T04:43:09;25.44;54.09
65824;SHT31;52585;47.566;19.056;2022-07-23T04:45:35;25.46;54.17
65824;SHT31;52585;47.566;19.056;2022-07-23T04:48:00;25.48;54.39
65824;SHT31;52585;47.566;19.056;2022-07-23T04:53:18;25.52;54.64
65824;SHT31;52585;47.566;19.056;2022-07-23T04:55:45;25.55;54.58
65824;SHT31;52585;47.566;19.056;2022-07-23T04:58:10;25.58;54.62
65824;SHT31;52585;47.566;19.056;2022-07-23T05:00:36;25.60;54.70
65824;SHT31;52585;47.566;19.056;2022-07-23T05:03:01;25.63;54.79
65824;SHT31;52585;47.566;19.056;2022-07-23T05:05:27;25.64;54.61
65824;SHT31;52585;47.566;19.056;2022-07-23T05:07:53;25.66;54.02
65824;SHT31;52585;47.566;19.056;2022-07-23T05:10:19;25.68;53.83
65824;SHT31;52585;47.566;19.056;2022-07-23T05:12:44;25.71;53.68
65824;SHT31;52585;47.566;19.056;2022-07-23T05:15:10;25.73;53.63
65824;SHT31;52585;47.566;19.056;2022-07-23T05:17:35;25.74;53.58
65824;SHT31;52585;47.566;19.056;2022-07-23T05:20:01;25.77;53.40
65824;SHT31;52585;47.566;19.056;2022-07-23T05:22:28;25.80;53.50
65824;SHT31;52585;47.566;19.056;2022-07-23T05:24:54;25.83;53.63
65824;SHT31;52585;47.566;19.056;2022-07-23T05:27:20;25.85;53.63
65824;SHT31;52585;47.566;19.056;2022-07-23T05:29:45;25.87;53.67
65824;SHT31;52585;47.566;19.056;2022-07-23T05:32:11;25.90;53.59
65824;SHT31;52585;47.566;19.056;2022-07-23T05:34:36;25.91;53.46
65824;SHT31;52585;47.566;19.056;2022-07-23T05:37:11;25.94;53.03
65824;SHT31;52585;47.566;19.056;2022-07-23T05:39:36;25.96;52.99
65824;SHT31;52585;47.566;19.056;2022-07-23T05:42:02;25.99;53.11
65824;SHT31;52585;47.566;19.056;2022-07-23T05:44:28;26.02;53.26
65824;SHT31;52585;47.566;19.056;2022-07-23T05:46:53;26.05;53.38
65824;SHT31;52585;47.566;19.056;2022-07-23T05:49:19;26.08;53.36
65824;SHT31;52585;47.566;19.056;2022-07-23T05:51:44;26.10;53.32
65824;SHT31;52585;47.566;19.056;2022-07-23T05:54:10;26.14;53.31
65824;SHT31;52585;47.566;19.056;2022-07-23T05:56:36;26.16;53.23
65824;SHT31;52585;47.566;19.056;2022-07-23T05:59:01;26.19;53.32
65824;SHT31;52585;47.566;19.056;2022-07-23T06:01:27;26.23;53.28
65824;SHT31;52585;47.566;19.056;2022-07-23T06:03:53;26.26;53.17
65824;SHT31;52585;47.566;19.056;2022-07-23T06:06:18;26.28;53.13
65824;SHT31;52585;47.566;19.056;2022-07-23T06:08:44;26.31;53.07
65824;SHT31;52585;47.566;19.056;2022-07-23T06:11:10;26.34;53.06
65824;SHT31;52585;47.566;19.056;2022-07-23T06:13:36;26.38;53.13
65824;SHT31;52585;47.566;19.056;2022-07-23T06:16:02;26.42;52.94
65824;SHT31;52585;47.566;19.056;2022-07-23T06:18:27;26.45;52.50
65824;SHT31;52585;47.566;19.056;2022-07-23T06:20:53;26.49;52.26
65824;SHT31;52585;47.566;19.056;2022-07-23T06:23:19;26.53;52.07
65824;SHT31;52585;47.566;19.056;2022-07-23T06:25:45;26.57;51.65
65824;SHT31;52585;47.566;19.056;2022-07-23T06:28:11;26.60;51.61
65824;SHT31;52585;47.566;19.056;2022-07-23T06:30:36;26.65;51.14
65824;SHT31;52585;47.566;19.056;2022-07-23T06:33:02;26.68;50.81
65824;SHT31;52585;47.566;19.056;2022-07-23T06:35:31;26.72;50.28
65824;SHT31;52585;47.566;19.056;2022-07-23T06:37:58;26.76;50.12
65824;SHT31;52585;47.566;19.056;2022-07-23T06:40:24;26.81;49.71
65824;SHT31;52585;47.566;19.056;2022-07-23T06:42:50;26.84;49.59
65824;SHT31;52585;47.566;19.056;2022-07-23T06:45:17;26.89;49.59
65824;SHT31;52585;47.566;19.056;2022-07-23T06:47:43;26.92;49.40
65824;SHT31;52585;47.566;19.056;2022-07-23T06:50:09;26.96;49.20
65824;SHT31;52585;47.566;19.056;2022-07-23T06:52:35;27.01;49.03
65824;SHT31;52585;47.566;19.056;2022-07-23T06:55:01;27.05;48.91
65824;SHT31;52585;47.566;19.056;2022-07-23T06:57:27;27.10;48.95
65824;SHT31;52585;47.566;19.056;2022-07-23T06:59:53;27.14;48.88
65824;SHT31;52585;47.566;19.056;2022-07-23T07:02:18;27.19;48.77
65824;SHT31;52585;47.566;19.056;2022-07-23T07:04:44;27.24;48.66
65824;SHT31;52585;47.566;19.056;2022-07-23T07:07:10;27.29;48.30
65824;SHT31;52585;47.566;19.056;2022-07-23T07:09:37;27.33;46.42
65824;SHT31;52585;47.566;19.056;2022-07-23T07:12:03;27.37;45.69
65824;SHT31;52585;47.566;19.056;2022-07-23T07:14:29;27.39;45.35
65824;SHT31;52585;47.566;19.056;2022-07-23T07:16:55;27.44;44.87
65824;SHT31;52585;47.566;19.056;2022-07-23T07:19:20;27.45;44.54
65824;SHT31;52585;47.566;19.056;2022-07-23T07:21:46;27.50;44.88
65824;SHT31;52585;47.566;19.056;2022-07-23T07:24:13;27.55;45.11
65824;SHT31;52585;47.566;19.056;2022-07-23T07:26:38;27.58;44.64
65824;SHT31;52585;47.566;19.056;2022-07-23T07:29:04;27.60;44.43
65824;SHT31;52585;47.566;19.056;2022-07-23T07:31:31;27.65;44.53
65824;SHT31;52585;47.566;19.056;2022-07-23T07:33:57;27.70;44.40
65824;SHT31;52585;47.566;19.056;2022-07-23T07:36:24;27.75;44.19
65824;SHT31;52585;47.566;19.056;2022-07-23T07:38:50;27.77;43.88
65824;SHT31;52585;47.566;19.056;2022-07-23T07:41:15;27.82;44.08
65824;SHT31;52585;47.566;19.056;2022-07-23T07:43:41;27.87;44.11
65824;SHT31;52585;47.566;19.056;2022-07-23T07:46:07;27.91;43.80
65824;SHT31;52585;47.566;19.056;2022-07-23T07:48:36;27.96;43.97
65824;SHT31;52585;47.566;19.056;2022-07-23T07:51:05;28.01;44.09
65824;SHT31;52585;47.566;19.056;2022-07-23T07:53:31;28.06;44.44
65824;SHT31;52585;47.566;19.056;2022-07-23T07:55:57;28.13;45.07
65824;SHT31;52585;47.566;19.056;2022-07-23T07:58:30;28.22;45.18
65824;SHT31;52585;47.566;19.056;2022-07-23T08:00:55;28.33;45.47
65824;SHT31;52585;47.566;19.056;2022-07-23T08:03:21;28.48;45.34
65824;SHT31;52585;47.566;19.056;2022-07-23T08:05:46;28.61;45.07
65824;SHT31;52585;47.566;19.056;2022-07-23T08:08:12;28.71;44.82
65824;SHT31;52585;47.566;19.056;2022-07-23T08:10:39;28.84;44.49
65824;SHT31;52585;47.566;19.056;2022-07-23T08:13:05;28.95;44.40
65824;SHT31;52585;47.566;19.056;2022-07-23T08:15:31;29.05;44.42
65824;SHT31;52585;47.566;19.056;2022-07-23T08:17:57;29.14;44.40
65824;SHT31;52585;47.566;19.056;2022-07-23T08:20:23;29.23;44.43
65824;SHT31;52585;47.566;19.056;2022-07-23T08:25:24;29.39;44.18
65824;SHT31;52585;47.566;19.056;2022-07-23T08:27:50;29.48;43.91
65824;SHT31;52585;47.566;19.056;2022-07-23T08:30:17;29.57;43.64
65824;SHT31;52585;47.566;19.056;2022-07-23T08:32:51;29.67;43.42
65824;SHT31;52585;47.566;19.056;2022-07-23T08:35:39;29.77;43.11
65824;SHT31;52585;47.566;19.056;2022-07-23T08:38:09;29.89;42.94
65824;SHT31;52585;47.566;19.056;2022-07-23T08:40:37;30.00;42.78
65824;SHT31;52585;47.566;19.056;2022-07-23T08:43:07;30.11;42.58
65824;SHT31;52585;47.566;19.056;2022-07-23T08:45:42;30.20;42.34
65824;SHT31;52585;47.566;19.056;2022-07-23T08:48:12;30.28;42.08
65824;SHT31;52585;47.566;19.056;2022-07-23T08:50:45;30.35;42.12
65824;SHT31;52585;47.566;19.056;2022-07-23T08:53:19;30.44;41.73
65824;SHT31;52585;47.566;19.056;2022-07-23T08:55:48;30.54;41.44
65824;SHT31;52585;47.566;19.056;2022-07-23T08:58:16;30.64;41.24
65824;SHT31;52585;47.566;19.056;2022-07-23T09:00:43;30.74;40.69
65824;SHT31;52585;47.566;19.056;2022-07-23T09:03:14;30.83;40.51
65824;SHT31;52585;47.566;19.056;2022-07-23T09:05:59;30.92;40.12
65824;SHT31;52585;47.566;19.056;2022-07-23T09:11:08;31.09;39.85
65824;SHT31;52585;47.566;19.056;2022-07-23T09:16:28;31.22;39.23
65824;SHT31;52585;47.566;19.056;2022-07-23T09:19:00;31.29;39.06
65824;SHT31;52585;47.566;19.056;2022-07-23T09:21:36;31.37;38.94
65824;SHT31;52585;47.566;19.056;2022-07-23T09:26:38;31.53;38.64
65824;SHT31;52585;47.566;19.056;2022-07-23T09:29:14;31.60;38.35
65824;SHT31;52585;47.566;19.056;2022-07-23T09:34:28;31.74;37.80
65824;SHT31;52585;47.566;19.056;2022-07-23T09:37:18;31.79;37.60
65824;SHT31;52585;47.566;19.056;2022-07-23T09:39:45;31.85;37.49
65824;SHT31;52585;47.566;19.056;2022-07-23T09:44:43;32.01;37.43
65824;SHT31;52585;47.566;19.056;2022-07-23T09:47:12;32.08;37.37
65824;SHT31;52585;47.566;19.056;2022-07-23T09:49:38;32.15;37.36
65824;SHT31;52585;47.566;19.056;2022-07-23T09:52:04;32.23;37.31
65824;SHT31;52585;47.566;19.056;2022-07-23T09:54:37;32.29;37.18
65824;SHT31;52585;47.566;19.056;2022-07-23T09:57:09;32.36;37.15
65824;SHT31;52585;47.566;19.056;2022-07-23T09:59:41;32.38;36.86
65824;SHT31;52585;47.566;19.056;2022-07-23T10:02:13;32.44;36.74
65824;SHT31;52585;47.566;19.056;2022-07-23T10:04:40;32.51;36.53
65824;SHT31;52585;47.566;19.056;2022-07-23T10:07:07;32.57;36.48
65824;SHT31;52585;47.566;19.056;2022-07-23T10:09:36;32.62;36.38
65824;SHT31;52585;47.566;19.056;2022-07-23T10:12:13;32.69;36.27
65824;SHT31;52585;47.566;19.056;2022-07-23T10:14:47;32.74;36.22
65824;SHT31;52585;47.566;19.056;2022-07-23T10:17:13;32.82;36.15
65824;SHT31;52585;47.566;19.056;2022-07-23T10:19:45;32.88;36.07
65824;SHT31;52585;47.566;19.056;2022-07-23T10:22:24;32.94;36.18
65824;SHT31;52585;47.566;19.056;2022-07-23T10:25:12;33.00;36.00
65824;SHT31;52585;47.566;19.056;2022-07-23T10:41:37;33.17;35.11
65824;SHT31;52585;47.566;19.056;2022-07-23T10:44:08;33.20;35.32
65824;SHT31;52585;47.566;19.056;2022-07-23T10:49:34;33.15;35.03
65824;SHT31;52585;47.566;19.056;2022-07-23T10:57:47;33.32;34.63
65824;SHT31;52585;47.566;19.056;2022-07-23T11:00:16;33.36;34.74
65824;SHT31;52585;47.566;19.056;2022-07-23T11:02:49;33.41;34.60
65824;SHT31;52585;47.566;19.056;2022-07-23T11:05:21;33.45;34.47
65824;SHT31;52585;47.566;19.056;2022-07-23T11:13:43;33.59;33.26
65824;SHT31;52585;47.566;19.056;2022-07-23T11:23:58;33.76;33.65
65824;SHT31;52585;47.566;19.056;2022-07-23T11:34:42;33.76;33.22
65824;SHT31;52585;47.566;19.056;2022-07-23T11:37:12;33.75;33.34
65824;SHT31;52585;47.566;19.056;2022-07-23T11:40:09;33.78;33.41
65824;SHT31;52585;47.566;19.056;2022-07-23T11:42:59;33.77;33.83
65824;SHT31;52585;47.566;19.056;2022-07-23T11:46:00;33.76;34.12
65824;SHT31;52585;47.566;19.056;2022-07-23T11:48:28;33.72;34.25
65824;SHT31;52585;47.566;19.056;2022-07-23T11:50:56;33.70;34.34
65824;SHT31;52585;47.566;19.056;2022-07-23T11:53:30;33.67;34.66
65824;SHT31;52585;47.566;19.056;2022-07-23T11:56:03;33.66;34.68
65824;SHT31;52585;47.566;19.056;2022-07-23T11:58:31;33.65;34.22
65824;SHT31;52585;47.566;19.056;2022-07-23T12:00:57;33.66;33.97
65824;SHT31;52585;47.566;19.056;2022-07-23T12:03:22;33.68;33.92
65824;SHT31;52585;47.566;19.056;2022-07-23T12:05:48;33.71;33.89
65824;SHT31;52585;47.566;19.056;2022-07-23T12:08:14;33.72;33.95
65824;SHT31;52585;47.566;19.056;2022-07-23T12:10:40;33.73;34.03
65824;SHT31;52585;47.566;19.056;2022-07-23T12:13:09;33.74;33.93
65824;SHT31;52585;47.566;19.056;2022-07-23T12:15:46;33.75;33.79
65824;SHT31;52585;47.566;19.056;2022-07-23T12:18:19;33.77;33.65
65824;SHT31;52585;47.566;19.056;2022-07-23T12:20:49;33.77;33.69
65824;SHT31;52585;47.566;19.056;2022-07-23T12:23:18;33.76;33.63
65824;SHT31;52585;47.566;19.056;2022-07-23T12:25:47;33.75;33.46
65824;SHT31;52585;47.566;19.056;2022-07-23T12:28:18;33.74;33.64
65824;SHT31;52585;47.566;19.056;2022-07-23T12:30:55;33.74;33.45
65824;SHT31;52585;47.566;19.056;2022-07-23T12:33:24;33.74;33.51
65824;SHT31;52585;47.566;19.056;2022-07-23T12:36:01;33.75;33.43
65824;SHT31;52585;47.566;19.056;2022-07-23T12:38:36;33.75;33.38
65824;SHT31;52585;47.566;19.056;2022-07-23T12:41:08;33.73;33.29
65824;SHT31;52585;47.566;19.056;2022-07-23T12:43:39;33.70;33.27
65824;SHT31;52585;47.566;19.056;2022-07-23T12:46:09;33.69;33.21
65824;SHT31;52585;47.566;19.056;2022-07-23T12:49:00;33.67;33.24
65824;SHT31;52585;47.566;19.056;2022-07-23T12:51:26;33.67;33.28
65824;SHT31;52585;47.566;19.056;2022-07-23T12:53:58;33.65;33.37
65824;SHT31;52585;47.566;19.056;2022-07-23T12:56:32;33.67;33.31
65824;SHT31;52585;47.566;19.056;2022-07-23T13:01:29;33.65;33.48
65824;SHT31;52585;47.566;19.056;2022-07-23T13:04:07;33.65;33.48
65824;SHT31;52585;47.566;19.056;2022-07-23T13:06:55;33.65;33.22
65824;SHT31;52585;47.566;19.056;2022-07-23T13:09:26;33.64;32.99
65824;SHT31;52585;47.566;19.056;2022-07-23T13:11:55;33.65;32.83
65824;SHT31;52585;47.566;19.056;2022-07-23T13:14:23;33.65;32.70
65824;SHT31;52585;47.566;19.056;2022-07-23T13:16:50;33.63;32.56
65824;SHT31;52585;47.566;19.056;2022-07-23T13:19:18;33.63;32.45
65824;SHT31;52585;47.566;19.056;2022-07-23T13:21:47;33.61;32.23
65824;SHT31;52585;47.566;19.056;2022-07-23T13:24:14;33.61;32.16
65824;SHT31;52585;47.566;19.056;2022-07-23T13:26:40;33.61;32.30
65824;SHT31;52585;47.566;19.056;2022-07-23T13:29:06;33.64;32.16
65824;SHT31;52585;47.566;19.056;2022-07-23T13:31:32;33.67;32.26
65824;SHT31;52585;47.566;19.056;2022-07-23T13:33:58;33.69;32.51
65824;SHT31;52585;47.566;19.056;2022-07-23T13:36:24;33.69;32.59
65824;SHT31;52585;47.566;19.056;2022-07-23T13:38:50;33.71;32.47
65824;SHT31;52585;47.566;19.056;2022-07-23T13:41:16;33.70;32.62
65824;SHT31;52585;47.566;19.056;2022-07-23T13:43:43;33.71;32.66
65824;SHT31;52585;47.566;19.056;2022-07-23T13:46:09;33.73;32.70
65824;SHT31;52585;47.566;19.056;2022-07-23T13:48:35;33.72;32.82
65824;SHT31;52585;47.566;19.056;2022-07-23T13:51:01;33.74;32.89
65824;SHT31;52585;47.566;19.056;2022-07-23T13:53:27;33.75;32.87
65824;SHT31;52585;47.566;19.056;2022-07-23T13:55:52;33.78;32.84
65824;SHT31;52585;47.566;19.056;2022-07-23T13:58:19;33.79;33.04
65824;SHT31;52585;47.566;19.056;2022-07-23T14:00:51;33.81;32.78
65824;SHT31;52585;47.566;19.056;2022-07-23T14:03:19;33.85;32.58
65824;SHT31;52585;47.566;19.056;2022-07-23T14:05:50;33.88;32.29
65824;SHT31;52585;47.566;19.056;2022-07-23T14:08:17;33.91;32.17
65824;SHT31;52585;47.566;19.056;2022-07-23T14:10:44;33.93;32.02
65824;SHT31;52585;47.566;19.056;2022-07-23T14:13:18;33.99;31.64
65824;SHT31;52585;47.566;19.056;2022-07-23T14:15:44;34.04;31.49
65824;SHT31;52585;47.566;19.056;2022-07-23T14:18:09;34.06;31.40
65824;SHT31;52585;47.566;19.056;2022-07-23T14:20:35;34.04;31.32
65824;SHT31;52585;47.566;19.056;2022-07-23T14:23:01;34.03;31.27
65824;SHT31;52585;47.566;19.056;2022-07-23T14:25:27;34.02;31.17
65824;SHT31;52585;47.566;19.056;2022-07-23T14:27:53;34.04;30.90
65824;SHT31;52585;47.566;19.056;2022-07-23T14:30:19;34.06;30.79
65824;SHT31;52585;47.566;19.056;2022-07-23T14:32:45;34.08;30.47
65824;SHT31;52585;47.566;19.056;2022-07-23T14:35:10;34.08;30.18
65824;SHT31;52585;47.566;19.056;2022-07-23T14:37:36;34.08;29.92
65824;SHT31;52585;47.566;19.056;2022-07-23T14:40:04;34.08;29.88
65824;SHT31;52585;47.566;19.056;2022-07-23T14:42:31;34.08;29.84
65824;SHT31;52585;47.566;19.056;2022-07-23T14:44:57;34.07;29.84
65824;SHT31;52585;47.566;19.056;2022-07-23T14:47:22;34.07;29.98
65824;SHT31;52585;47.566;19.056;2022-07-23T14:49:48;34.06;30.21
65824;SHT31;52585;47.566;19.056;2022-07-23T14:52:14;34.04;30.12
65824;SHT31;52585;47.566;19.056;2022-07-23T14:54:40;34.02;30.12
65824;SHT31;52585;47.566;19.056;2022-07-23T14:57:05;33.98;30.20
65824;SHT31;52585;47.566;19.056;2022-07-23T14:59:34;33.97;30.37
65824;SHT31;52585;47.566;19.056;2022-07-23T15:02:00;33.93;30.44
65824;SHT31;52585;47.566;19.056;2022-07-23T15:04:26;33.90;30.51
65824;SHT31;52585;47.566;19.056;2022-07-23T15:06:51;33.88;30.58
65824;SHT31;52585;47.566;19.056;2022-07-23T15:09:17;33.85;30.80
65824;SHT31;52585;47.566;19.056;2022-07-23T15:11:43;33.81;31.03
65824;SHT31;52585;47.566;19.056;2022-07-23T15:14:08;33.79;31.08
65824;SHT31;52585;47.566;19.056;2022-07-23T15:16:34;33.78;31.12
65824;SHT31;52585;47.566;19.056;2022-07-23T15:19:00;33.75;31.27
65824;SHT31;52585;47.566;19.056;2022-07-23T15:21:28;33.72;31.45
65824;SHT31;52585;47.566;19.056;2022-07-23T15:23:58;33.69;31.66
65824;SHT31;52585;47.566;19.056;2022-07-23T15:26:25;33.68;31.82
65824;SHT31;52585;47.566;19.056;2022-07-23T15:28:52;33.65;32.04
65824;SHT31;52585;47.566;19.056;2022-07-23T15:31:18;33.64;32.13
65824;SHT31;52585;47.566;19.056;2022-07-23T15:33:44;33.62;32.28
65824;SHT31;52585;47.566;19.056;2022-07-23T15:36:10;33.59;32.59
65824;SHT31;52585;47.566;19.056;2022-07-23T15:38:36;33.56;32.94
65824;SHT31;52585;47.566;19.056;2022-07-23T15:41:01;33.53;32.99
65824;SHT31;52585;47.566;19.056;2022-07-23T15:43:27;33.50;33.07
65824;SHT31;52585;47.566;19.056;2022-07-23T15:45:53;33.47;33.13
65824;SHT31;52585;47.566;19.056;2022-07-23T15:48:19;33.45;33.35
65824;SHT31;52585;47.566;19.056;2022-07-23T15:50:46;33.41;33.47
65824;SHT31;52585;47.566;19.056;2022-07-23T15:53:12;33.37;33.62
65824;SHT31;52585;47.566;19.056;2022-07-23T15:55:39;33.33;33.77
65824;SHT31;52585;47.566;19.056;2022-07-23T15:58:06;33.29;34.03
65824;SHT31;52585;47.566;19.056;2022-07-23T16:00:32;33.23;34.34
65824;SHT31;52585;47.566;19.056;2022-07-23T16:02:59;33.17;34.86
65824;SHT31;52585;47.566;19.056;2022-07-23T16:05:25;33.12;35.35
65824;SHT31;52585;47.566;19.056;2022-07-23T16:07:50;33.05;35.89
65824;SHT31;52585;47.566;19.056;2022-07-23T16:10:16;32.98;36.06
65824;SHT31;52585;47.566;19.056;2022-07-23T16:12:42;32.93;36.41
65824;SHT31;52585;47.566;19.056;2022-07-23T16:15:08;32.83;36.83
65824;SHT31;52585;47.566;19.056;2022-07-23T16:17:34;32.74;36.85
65824;SHT31;52585;47.566;19.056;2022-07-23T16:20:00;32.67;36.89
65824;SHT31;52585;47.566;19.056;2022-07-23T16:22:26;32.60;37.01